createdAt,value
2023-03-06T00:00:06.945Z,85.9
2023-03-06T00:01:21.362Z,86.2
2023-03-06T00:02:35.677Z,86.5
2023-03-06T00:03:49.949Z,86.3
2023-03-06T00:05:04.230Z,86.5
2023-03-06T00:06:18.646Z,86.5
2023-03-06T00:07:32.962Z,86.4
2023-03-06T00:08:47.246Z,86.6
2023-03-06T00:10:01.537Z,86.6
2023-03-06T00:11:15.948Z,86.5
2023-03-06T00:12:30.258Z,86.4
2023-03-06T00:13:44.533Z,86.5
2023-03-06T00:16:13.225Z,86.8
2023-03-06T00:17:27.551Z,87
2023-03-06T00:18:41.835Z,87.4
2023-03-06T00:19:56.120Z,87.4
2023-03-06T00:21:10.529Z,87.2
2023-03-06T00:22:24.852Z,87.2
2023-03-06T00:23:39.128Z,87.2
2023-03-06T00:24:53.399Z,87.5
2023-03-06T00:26:07.817Z,87.8
2023-03-06T00:27:22.144Z,87.7
2023-03-06T00:28:36.423Z,87.6
2023-03-06T00:29:50.760Z,87.6
2023-03-06T00:31:05.166Z,87.5
2023-03-06T00:32:19.500Z,87.7
2023-03-06T00:33:32.844Z,87.8
2023-03-06T00:34:47.124Z,87.8
2023-03-06T00:36:01.536Z,88
2023-03-06T00:37:15.869Z,88.1
2023-03-06T00:38:30.135Z,88.2
2023-03-06T00:39:44.429Z,88.2
2023-03-06T00:40:58.838Z,88.4
2023-03-06T00:42:13.150Z,88.5
2023-03-06T00:43:27.441Z,88.9
2023-03-06T00:44:41.706Z,88.9
2023-03-06T00:45:56.128Z,88.8
2023-03-06T00:47:10.446Z,89
2023-03-06T00:49:39.167Z,88.9
2023-03-06T00:50:53.457Z,88.9
2023-03-06T00:52:07.861Z,88.9
2023-03-06T00:53:22.183Z,88.9
2023-03-06T00:54:36.476Z,88.9
2023-03-06T00:55:50.740Z,88.8
2023-03-06T00:57:05.158Z,88.8
2023-03-06T00:58:19.479Z,88.9
2023-03-06T00:59:33.759Z,88.9
2023-03-06T01:00:48.046Z,88.9
2023-03-06T01:02:02.453Z,88.9
2023-03-06T01:03:16.779Z,89
2023-03-06T01:04:31.058Z,89
2023-03-06T01:05:45.326Z,88.9
2023-03-06T01:06:59.734Z,88.9
2023-03-06T01:08:14.059Z,89.3
2023-03-06T01:09:28.342Z,89.3
2023-03-06T01:10:42.618Z,89.2
2023-03-06T01:11:57.038Z,89.2
2023-03-06T01:13:11.362Z,89.4
2023-03-06T01:14:25.639Z,89.8
2023-03-06T01:16:54.317Z,89.6
2023-03-06T01:18:08.655Z,89.5
2023-03-06T01:19:22.936Z,89.4
2023-03-06T01:20:37.209Z,89.5
2023-03-06T01:21:51.617Z,89.8
2023-03-06T01:23:05.933Z,89.6
2023-03-06T01:24:20.211Z,89.8
2023-03-06T01:25:34.508Z,89.8
2023-03-06T01:26:48.905Z,89.6
2023-03-06T01:28:03.224Z,89.8
2023-03-06T01:29:17.513Z,89.8
2023-03-06T01:30:31.784Z,89.8
2023-03-06T01:31:46.199Z,90
2023-03-06T01:33:00.527Z,90.1
2023-03-06T01:34:14.862Z,90.1
2023-03-06T01:35:29.202Z,90.1
2023-03-06T01:36:43.616Z,90
2023-03-06T01:37:57.951Z,89.8
2023-03-06T01:39:11.300Z,90.1
2023-03-06T01:41:40.108Z,90
2023-03-06T01:42:54.420Z,89.8
2023-03-06T01:44:08.713Z,90
2023-03-06T01:45:22.993Z,90.1
2023-03-06T01:46:37.395Z,90.1
2023-03-06T01:47:51.713Z,89.8
2023-03-06T01:49:06.010Z,89.8
2023-03-06T01:50:20.291Z,90
2023-03-06T01:51:34.693Z,90
2023-03-06T01:52:48.963Z,90
2023-03-06T01:54:03.243Z,90
2023-03-06T01:55:17.582Z,90.1
2023-03-06T01:56:31.854Z,90.2
2023-03-06T01:57:46.261Z,90.4
2023-03-06T01:59:00.582Z,90.4
2023-03-06T02:00:14.859Z,90.4
2023-03-06T02:01:29.140Z,90.5
2023-03-06T02:02:43.553Z,90.5
2023-03-06T02:03:57.883Z,90.6
2023-03-06T02:05:12.156Z,90.5
2023-03-06T02:06:26.432Z,90.4
2023-03-06T02:07:40.856Z,90.3
2023-03-06T02:08:55.175Z,90.5
2023-03-06T02:10:09.598Z,90.7
2023-03-06T02:11:23.923Z,90.8
2023-03-06T02:12:38.202Z,90.9
2023-03-06T02:13:52.609Z,91
2023-03-06T02:15:06.929Z,91.4
2023-03-06T02:16:21.221Z,91.4
2023-03-06T02:17:35.493Z,91.5
2023-03-06T02:18:49.899Z,91.5
2023-03-06T02:20:04.218Z,91.6
2023-03-06T02:21:18.513Z,91.7
2023-03-06T02:22:32.775Z,91.7
2023-03-06T02:23:47.192Z,91.7
2023-03-06T02:25:01.517Z,91.7
2023-03-06T02:27:30.074Z,91.6
2023-03-06T02:28:44.491Z,92
2023-03-06T02:29:58.805Z,92
2023-03-06T02:31:13.000Z,92.1
2023-03-06T02:32:27.364Z,92.2
2023-03-06T02:33:41.783Z,92.4
2023-03-06T02:34:56.103Z,92.6
2023-03-06T02:36:10.380Z,92.6
2023-03-06T02:37:24.655Z,92.6
2023-03-06T02:38:39.068Z,92.6
2023-03-06T02:39:53.395Z,92.9
2023-03-06T02:41:07.754Z,92.9
2023-03-06T02:42:21.096Z,93
2023-03-06T02:43:35.415Z,92.9
2023-03-06T02:44:49.695Z,92.9
2023-03-06T02:46:03.971Z,93
2023-03-06T02:47:18.380Z,93
2023-03-06T02:48:32.708Z,93.1
2023-03-06T02:49:46.987Z,93.1
2023-03-06T02:51:01.263Z,93.2
2023-03-06T02:52:15.671Z,93.3
2023-03-06T02:53:30.003Z,93.4
2023-03-06T02:54:44.284Z,93.5
2023-03-06T02:55:58.553Z,93.6
2023-03-06T02:57:12.965Z,93.7
2023-03-06T02:58:27.276Z,93.6
2023-03-06T02:59:41.563Z,93.6
2023-03-06T03:00:55.848Z,93.7
2023-03-06T03:02:10.258Z,93.7
2023-03-06T03:04:38.857Z,93.6
2023-03-06T03:05:53.133Z,93.7
2023-03-06T03:07:07.554Z,93.9
2023-03-06T03:08:21.874Z,94.1
2023-03-06T03:09:36.147Z,94.4
2023-03-06T03:10:50.578Z,94.5
2023-03-06T03:12:04.987Z,94.8
2023-03-06T03:13:19.315Z,95
2023-03-06T03:14:33.588Z,95.2
2023-03-06T03:15:47.866Z,95.3
2023-03-06T03:17:02.264Z,95.4
2023-03-06T03:18:16.604Z,95.6
2023-03-06T03:19:30.883Z,95.6
2023-03-06T03:20:45.151Z,95.6
2023-03-06T03:21:59.561Z,95.6
2023-03-06T03:23:13.881Z,95.6
2023-03-06T03:24:28.174Z,95.6
2023-03-06T03:25:42.448Z,95.6
2023-03-06T03:26:56.869Z,95.6
2023-03-06T03:28:11.174Z,95.7
2023-03-06T03:29:25.461Z,95.9
2023-03-06T03:30:39.872Z,96
2023-03-06T03:31:54.266Z,96.1
2023-03-06T03:33:08.600Z,96.1
2023-03-06T03:34:22.888Z,96.1
2023-03-06T03:35:37.164Z,96.1
2023-03-06T03:38:05.893Z,96.1
2023-03-06T03:39:20.166Z,96.1
2023-03-06T03:40:34.456Z,96.3
2023-03-06T03:41:48.860Z,96.1
2023-03-06T03:43:03.181Z,96.3
2023-03-06T03:44:17.473Z,96.3
2023-03-06T03:45:31.754Z,96.3
2023-03-06T03:46:46.152Z,96.3
2023-03-06T03:48:00.481Z,96.3
2023-03-06T03:49:14.752Z,96.4
2023-03-06T03:50:29.038Z,96.6
2023-03-06T03:51:43.435Z,96.6
2023-03-06T03:52:57.776Z,96.8
2023-03-06T03:54:12.040Z,97
2023-03-06T03:55:26.331Z,97.2
2023-03-06T03:56:40.747Z,97.4
2023-03-06T03:57:55.052Z,97.5
2023-03-06T03:59:09.491Z,97.7
2023-03-06T04:00:23.804Z,97.5
2023-03-06T04:01:38.100Z,97.5
2023-03-06T04:02:52.502Z,97.4
2023-03-06T04:04:06.817Z,97.4
2023-03-06T04:05:21.101Z,97.4
2023-03-06T04:06:35.376Z,97.4
2023-03-06T04:07:49.785Z,97.3
2023-03-06T04:09:04.124Z,97.5
2023-03-06T04:10:18.518Z,97.7
2023-03-06T04:11:32.841Z,97.8
2023-03-06T04:14:01.539Z,97.5
2023-03-06T04:15:15.856Z,97.4
2023-03-06T04:16:30.134Z,97.3
2023-03-06T04:17:44.409Z,97.3
2023-03-06T04:18:58.830Z,97.3
2023-03-06T04:20:13.137Z,97.3
2023-03-06T04:21:27.426Z,97.2
2023-03-06T04:22:41.704Z,97.1
2023-03-06T04:23:56.106Z,97.1
2023-03-06T04:25:10.435Z,97.1
2023-03-06T04:26:24.728Z,97.1
2023-03-06T04:27:38.991Z,97
2023-03-06T04:28:53.404Z,96.9
2023-03-06T04:30:07.737Z,96.7
2023-03-06T04:31:22.017Z,96.5
2023-03-06T04:32:36.291Z,96.5
2023-03-06T04:33:50.696Z,96.6
2023-03-06T04:35:05.033Z,96.5
2023-03-06T04:36:19.313Z,96.5
2023-03-06T04:37:33.579Z,96.5
2023-03-06T04:38:48.002Z,96.4
2023-03-06T04:40:02.313Z,96.4
2023-03-06T04:41:16.599Z,96.4
2023-03-06T04:42:30.885Z,96.3
2023-03-06T04:43:45.275Z,96.2
2023-03-06T04:44:59.606Z,96.2
2023-03-06T04:46:13.879Z,96.1
2023-03-06T04:47:28.166Z,96
2023-03-06T04:48:42.582Z,95.9
2023-03-06T04:49:56.901Z,95.8
2023-03-06T04:51:11.179Z,95.8
2023-03-06T04:52:25.454Z,95.9
2023-03-06T04:53:39.879Z,96.1
2023-03-06T04:54:54.199Z,96.3
2023-03-06T04:56:08.528Z,96.3
2023-03-06T04:57:22.878Z,96.3
2023-03-06T04:58:37.273Z,96.3
2023-03-06T04:59:51.611Z,96.5
2023-03-06T05:01:04.956Z,96.6
2023-03-06T05:02:19.253Z,96.6
2023-03-06T05:03:33.647Z,96.6
2023-03-06T05:04:47.981Z,96.7
2023-03-06T05:06:02.251Z,96.8
2023-03-06T05:07:16.545Z,96.9
2023-03-06T05:08:30.950Z,96.9
2023-03-06T05:09:45.261Z,96.9
2023-03-06T05:10:59.544Z,96.9
2023-03-06T05:12:13.823Z,96.9
2023-03-06T05:13:28.248Z,96.8
2023-03-06T05:14:42.565Z,96.7
2023-03-06T05:15:56.850Z,96.8
2023-03-06T05:17:11.120Z,96.8
2023-03-06T05:18:25.524Z,96.8
2023-03-06T05:19:39.856Z,96.7
2023-03-06T05:20:54.140Z,96.7
2023-03-06T05:22:08.412Z,96.7
2023-03-06T05:23:22.831Z,96.8
2023-03-06T05:24:37.071Z,96.7
2023-03-06T05:25:51.285Z,96.6
2023-03-06T05:27:05.516Z,96.6
2023-03-06T05:28:19.742Z,96.6
2023-03-06T05:29:34.039Z,96.5
2023-03-06T05:30:48.291Z,96.5
2023-03-06T05:32:02.639Z,96.3
2023-03-06T05:33:16.969Z,96.3
2023-03-06T05:34:31.340Z,96.2
2023-03-06T05:35:45.612Z,96.2
2023-03-06T05:36:58.908Z,96.2
2023-03-06T05:38:13.146Z,96.3
2023-03-06T05:39:27.434Z,96.2
2023-03-06T05:40:41.683Z,96.3
2023-03-06T05:41:55.915Z,96.2
2023-03-06T05:43:10.139Z,96.1
2023-03-06T05:44:24.367Z,96.1
2023-03-06T05:45:38.662Z,96.2
2023-03-06T05:46:52.894Z,96.1
2023-03-06T05:48:07.128Z,96
2023-03-06T05:50:35.578Z,96.1
2023-03-06T05:51:49.883Z,96.1
2023-03-06T05:53:04.121Z,96.1
2023-03-06T05:54:18.359Z,96
2023-03-06T05:55:32.575Z,96
2023-03-06T05:56:46.806Z,96
2023-03-06T05:58:01.105Z,95.9
2023-03-06T05:59:15.340Z,95.9
2023-03-06T06:00:29.581Z,95.8
2023-03-06T06:01:43.794Z,95.9
2023-03-06T06:02:58.016Z,95.9
2023-03-06T06:04:12.327Z,95.9
2023-03-06T06:05:26.563Z,96
2023-03-06T06:07:55.080Z,95.9
2023-03-06T06:09:08.384Z,95.9
2023-03-06T06:10:22.606Z,95.8
2023-03-06T06:11:36.853Z,95.7
2023-03-06T06:12:51.077Z,95.7
2023-03-06T06:14:05.295Z,95.6
2023-03-06T06:15:19.596Z,95.6
2023-03-06T06:16:33.844Z,95.6
2023-03-06T06:17:48.065Z,95.6
2023-03-06T06:19:02.285Z,95.6
2023-03-06T06:20:16.517Z,95.5
2023-03-06T06:21:30.824Z,95.4
2023-03-06T06:22:45.054Z,95.2
2023-03-06T06:23:59.291Z,95.3
2023-03-06T06:25:13.514Z,95
2023-03-06T06:26:27.749Z,95
2023-03-06T06:27:42.040Z,95
2023-03-06T06:30:10.516Z,94.9
2023-03-06T06:31:24.739Z,94.9
2023-03-06T06:32:38.958Z,94.8
2023-03-06T06:33:53.253Z,94.8
2023-03-06T06:35:07.504Z,94.8
2023-03-06T06:36:21.739Z,94.8
2023-03-06T06:37:35.956Z,94.6
2023-03-06T06:38:50.177Z,94.5
2023-03-06T06:41:18.825Z,94.3
2023-03-06T06:42:32.153Z,94.3
2023-03-06T06:43:45.446Z,94.1
2023-03-06T06:44:59.691Z,93.9
2023-03-06T06:46:13.922Z,94.1
2023-03-06T06:47:28.149Z,94.1
2023-03-06T06:48:42.381Z,94
2023-03-06T06:49:56.682Z,93.7
2023-03-06T06:51:10.911Z,93.5
2023-03-06T06:52:25.150Z,93.7
2023-03-06T06:53:39.375Z,93.6
2023-03-06T06:54:53.609Z,93.5
2023-03-06T06:56:07.893Z,93.4
2023-03-06T06:57:22.132Z,93.3
2023-03-06T06:58:36.377Z,93.3
2023-03-06T06:59:50.598Z,93.3
2023-03-06T07:01:04.815Z,93.5
2023-03-06T07:02:19.121Z,93.5
2023-03-06T07:03:33.353Z,93.6
2023-03-06T07:04:47.590Z,93.4
2023-03-06T07:06:01.826Z,93.4
2023-03-06T07:07:16.037Z,93.3
2023-03-06T07:08:30.341Z,93.3
2023-03-06T07:09:44.595Z,93.2
2023-03-06T07:12:13.046Z,93.2
2023-03-06T07:13:27.263Z,93.4
2023-03-06T07:14:41.629Z,93.5
2023-03-06T07:15:55.903Z,93.5
2023-03-06T07:17:09.246Z,93.6
2023-03-06T07:18:23.544Z,93.6
2023-03-06T07:20:52.124Z,93.8
2023-03-06T07:22:06.482Z,93.9
2023-03-06T07:23:20.720Z,94.3
2023-03-06T07:24:34.939Z,94.2
2023-03-06T07:25:49.233Z,94.2
2023-03-06T07:27:03.473Z,94.2
2023-03-06T07:28:17.713Z,94.4
2023-03-06T07:29:31.928Z,94.4
2023-03-06T07:30:46.159Z,94.4
2023-03-06T07:32:00.463Z,94.7
2023-03-06T07:33:14.708Z,94.8
2023-03-06T07:35:43.159Z,95.2
2023-03-06T07:36:57.389Z,95.5
2023-03-06T07:38:11.685Z,95.4
2023-03-06T07:39:25.933Z,95.5
2023-03-06T07:40:40.149Z,95.8
2023-03-06T07:41:54.384Z,96.1
2023-03-06T07:43:08.613Z,96
2023-03-06T07:44:22.900Z,96
2023-03-06T07:45:37.146Z,96.1
2023-03-06T07:46:51.376Z,96.1
2023-03-06T07:48:05.600Z,96
2023-03-06T07:50:34.134Z,95.7
2023-03-06T07:51:48.379Z,96
2023-03-06T07:53:02.655Z,95.9
2023-03-06T07:54:15.943Z,96.1
2023-03-06T07:55:30.254Z,96.2
2023-03-06T07:56:44.495Z,96.2
2023-03-06T07:57:58.722Z,96.5
2023-03-06T07:59:12.945Z,97
2023-03-06T08:00:27.180Z,97.4
2023-03-06T08:01:41.466Z,97.7
2023-03-06T08:02:55.706Z,98.4
2023-03-06T08:04:09.934Z,98.8
2023-03-06T08:05:24.168Z,98.7
2023-03-06T08:06:38.395Z,99
2023-03-06T08:07:52.687Z,99.1
2023-03-06T08:09:06.943Z,99.1
2023-03-06T08:10:21.162Z,99.2
2023-03-06T08:11:35.392Z,99.4
2023-03-06T08:12:49.614Z,99.4
2023-03-06T08:14:03.914Z,99.5
2023-03-06T08:15:18.161Z,99.6
2023-03-06T08:16:32.395Z,99.6
2023-03-06T08:17:46.611Z,99.6
2023-03-06T08:19:00.841Z,99.6
2023-03-06T08:20:15.139Z,99.8
2023-03-06T08:21:29.383Z,99.7
2023-03-06T08:22:43.615Z,99.6
2023-03-06T08:25:12.131Z,99.7
2023-03-06T08:26:26.429Z,99.4
2023-03-06T08:27:40.704Z,99.6
2023-03-06T08:28:54.000Z,99.8
2023-03-06T08:30:08.224Z,100
2023-03-06T08:31:22.530Z,100
2023-03-06T08:33:50.993Z,99.7
2023-03-06T08:35:05.217Z,99.8
2023-03-06T08:36:19.460Z,99.7
2023-03-06T08:37:33.755Z,99.7
2023-03-06T08:38:47.992Z,99.9
2023-03-06T08:40:02.222Z,99.9
2023-03-06T08:41:16.441Z,100
2023-03-06T08:42:30.670Z,100
2023-03-06T08:43:44.961Z,100
2023-03-06T08:44:59.202Z,99.6
2023-03-06T08:46:13.437Z,99.4
2023-03-06T08:47:27.672Z,99.6
2023-03-06T08:48:41.891Z,100
2023-03-06T08:49:56.188Z,99.8
2023-03-06T08:51:10.431Z,99.6
2023-03-06T08:52:24.652Z,100
2023-03-06T08:53:38.883Z,100
2023-03-06T08:54:53.111Z,100
2023-03-06T08:56:07.416Z,100
2023-03-06T08:57:21.657Z,100
2023-03-06T08:59:50.252Z,100
2023-03-06T09:01:04.483Z,100
2023-03-06T09:02:18.785Z,100
2023-03-06T09:03:33.024Z,100
2023-03-06T09:04:47.240Z,100
2023-03-06T09:06:01.474Z,100
2023-03-06T09:07:15.698Z,99.8
2023-03-06T09:08:29.992Z,99.6
2023-03-06T09:09:44.235Z,99.6
2023-03-06T09:10:58.605Z,99.3
2023-03-06T09:12:12.842Z,99.3
2023-03-06T09:13:27.056Z,99.3
2023-03-06T09:14:41.363Z,99.3
2023-03-06T09:15:55.609Z,99.1
2023-03-06T09:17:09.826Z,99
2023-03-06T09:18:24.056Z,98.4
2023-03-06T09:19:38.281Z,98.6
2023-03-06T09:20:52.592Z,98.7
2023-03-06T09:22:06.831Z,98.7
2023-03-06T09:23:21.047Z,98.8
2023-03-06T09:24:35.286Z,98.6
2023-03-06T09:25:49.504Z,98.4
2023-03-06T09:27:03.800Z,97.7
2023-03-06T09:28:18.050Z,97.9
2023-03-06T09:29:32.275Z,97.7
2023-03-06T09:30:46.501Z,97.3
2023-03-06T09:32:00.729Z,97.7
2023-03-06T09:33:15.028Z,97.6
2023-03-06T09:34:29.271Z,97.9
2023-03-06T09:35:43.498Z,97.6
2023-03-06T09:36:57.728Z,97.1
2023-03-06T09:38:11.955Z,96.6
2023-03-06T09:39:26.255Z,96.1
2023-03-06T09:40:40.488Z,96.3
2023-03-06T09:41:54.871Z,96
2023-03-06T09:43:09.096Z,95.7
2023-03-06T09:44:23.323Z,95.5
2023-03-06T09:45:37.617Z,94.5
2023-03-06T09:46:51.859Z,93.5
2023-03-06T09:48:06.078Z,93.5
2023-03-06T09:49:20.315Z,93.3
2023-03-06T09:50:34.544Z,93.3
2023-03-06T09:51:48.847Z,92.6
2023-03-06T09:53:03.086Z,90.8
2023-03-06T09:54:17.308Z,89.9
2023-03-06T09:55:31.526Z,90.1
2023-03-06T09:56:45.757Z,89.6
2023-03-06T09:58:00.061Z,89.5
2023-03-06T09:59:14.297Z,90.5
2023-03-06T10:00:28.522Z,91.1
2023-03-06T10:02:56.980Z,90.9
2023-03-06T10:04:11.282Z,91.7
2023-03-06T10:05:25.516Z,89.8
2023-03-06T10:06:39.740Z,90.3
2023-03-06T10:07:53.973Z,90.9
2023-03-06T10:09:08.202Z,90.6
2023-03-06T10:10:22.508Z,89.7
2023-03-06T10:11:36.740Z,90.5
2023-03-06T10:12:51.000Z,91.4
2023-03-06T10:14:04.367Z,92.2
2023-03-06T10:15:18.665Z,91.6
2023-03-06T10:16:32.938Z,91.6
2023-03-06T10:17:46.248Z,91.9
2023-03-06T10:19:00.459Z,91.9
2023-03-06T10:20:14.775Z,92.5
2023-03-06T10:21:29.008Z,93.1
2023-03-06T10:22:43.235Z,92.5
2023-03-06T10:23:57.468Z,92.2
2023-03-06T10:25:11.689Z,91.7
2023-03-06T10:26:25.982Z,92.2
2023-03-06T10:27:40.222Z,92.3
2023-03-06T10:28:54.454Z,92.4
2023-03-06T10:30:08.673Z,92.2
2023-03-06T10:31:23.025Z,91.5
2023-03-06T10:32:37.333Z,91.5
2023-03-06T10:33:51.573Z,91.6
2023-03-06T10:35:05.801Z,92.5
2023-03-06T10:36:20.029Z,91.5
2023-03-06T10:37:34.260Z,91
2023-03-06T10:38:48.561Z,90.1
2023-03-06T10:40:02.793Z,89.6
2023-03-06T10:41:17.012Z,86.1
2023-03-06T10:42:31.255Z,87.3
2023-03-06T10:43:45.477Z,87.9
2023-03-06T10:44:59.772Z,87.2
2023-03-06T10:46:14.005Z,85.9
2023-03-06T10:47:28.241Z,86.8
2023-03-06T10:48:42.460Z,88
2023-03-06T10:51:10.996Z,85.7
2023-03-06T10:52:25.227Z,85.6
2023-03-06T10:53:39.463Z,86.3
2023-03-06T10:54:53.682Z,87.2
2023-03-06T10:56:07.918Z,85.2
2023-03-06T10:57:22.223Z,85.2
2023-03-06T10:58:36.463Z,85
2023-03-06T11:01:04.915Z,84
2023-03-06T11:02:19.131Z,84.4
2023-03-06T11:03:33.427Z,85
2023-03-06T11:04:47.674Z,85.4
2023-03-06T11:06:01.904Z,83.8
2023-03-06T11:07:16.127Z,84.9
2023-03-06T11:08:30.366Z,85.4
2023-03-06T11:09:44.656Z,85.1
2023-03-06T11:10:58.900Z,85.5
2023-03-06T11:12:13.117Z,85.5
2023-03-06T11:13:27.349Z,82.9
2023-03-06T11:14:41.577Z,81.5
2023-03-06T11:15:55.887Z,79.6
2023-03-06T11:17:10.170Z,80.6
2023-03-06T11:18:23.529Z,81.4
2023-03-06T11:20:51.152Z,80.9
2023-03-06T11:22:05.424Z,78.7
2023-03-06T11:23:18.719Z,81.3
2023-03-06T11:24:33.024Z,81.2
2023-03-06T11:25:47.260Z,79.6
2023-03-06T11:27:01.483Z,78.9
2023-03-06T11:28:15.712Z,76.3
2023-03-06T11:29:29.943Z,74.2
2023-03-06T11:30:44.252Z,73.7
2023-03-06T11:31:58.478Z,74
2023-03-06T11:33:12.708Z,72.7
2023-03-06T11:34:26.942Z,72.8
2023-03-06T11:35:41.163Z,71.7
2023-03-06T11:36:55.462Z,69.5
2023-03-06T11:38:09.700Z,71.2
2023-03-06T11:39:23.932Z,71.4
2023-03-06T11:40:38.164Z,69.9
2023-03-06T11:41:52.389Z,68.3
2023-03-06T11:43:06.693Z,67.4
2023-03-06T11:44:20.925Z,67.5
2023-03-06T11:45:35.164Z,67.6
2023-03-06T11:46:49.385Z,68.1
2023-03-06T11:48:03.610Z,65.7
2023-03-06T11:49:17.897Z,66.4
2023-03-06T11:50:32.153Z,66.9
2023-03-06T11:51:46.373Z,66.7
2023-03-06T11:53:00.595Z,63.4
2023-03-06T11:54:14.890Z,61.9
2023-03-06T11:55:29.183Z,63.9
2023-03-06T11:56:43.474Z,66.1
2023-03-06T11:57:56.804Z,66.6
2023-03-06T11:59:11.084Z,66.1
2023-03-06T12:00:25.398Z,66
2023-03-06T12:01:39.680Z,68.7
2023-03-06T12:02:52.971Z,71.4
2023-03-06T12:04:07.197Z,71.9
2023-03-06T12:05:21.500Z,71.9
2023-03-06T12:06:35.732Z,73.4
2023-03-06T12:07:49.955Z,75
2023-03-06T12:09:04.195Z,73.9
2023-03-06T12:10:18.417Z,74.5
2023-03-06T12:11:32.718Z,76.3
2023-03-06T12:12:46.962Z,78.4
2023-03-06T12:14:01.186Z,77.7
2023-03-06T12:15:15.412Z,78.1
2023-03-06T12:16:29.632Z,77.2
2023-03-06T12:17:43.940Z,76.7
2023-03-06T12:18:58.172Z,77
2023-03-06T12:20:12.407Z,77.3
2023-03-06T12:21:26.748Z,79.8
2023-03-06T12:22:40.990Z,79.8
2023-03-06T12:23:55.283Z,80
2023-03-06T12:25:09.512Z,79.1
2023-03-06T12:26:23.737Z,78.9
2023-03-06T12:27:37.969Z,78.9
2023-03-06T12:28:52.195Z,79.3
2023-03-06T12:30:06.504Z,80.3
2023-03-06T12:31:20.750Z,80
2023-03-06T12:32:34.966Z,80.4
2023-03-06T12:33:49.201Z,81.1
2023-03-06T12:35:03.422Z,79.7
2023-03-06T12:36:17.724Z,79.2
2023-03-06T12:38:46.694Z,76.9
2023-03-06T12:40:00.916Z,74.9
2023-03-06T12:41:15.143Z,74.4
2023-03-06T12:42:29.439Z,74
2023-03-06T12:43:43.676Z,74.9
2023-03-06T12:44:57.897Z,74.8
2023-03-06T12:46:12.130Z,75
2023-03-06T12:47:26.359Z,74.9
2023-03-06T12:49:54.901Z,77.3
2023-03-06T12:51:09.122Z,75.2
2023-03-06T12:52:23.361Z,74.7
2023-03-06T12:53:37.570Z,74.3
2023-03-06T12:54:51.878Z,74.8
2023-03-06T12:56:06.110Z,75.7
2023-03-06T12:57:20.345Z,76.5
2023-03-06T12:58:34.566Z,76.7
2023-03-06T12:59:48.799Z,75.4
2023-03-06T13:01:03.099Z,75.7
2023-03-06T13:02:17.334Z,74.5
2023-03-06T13:03:31.563Z,75
2023-03-06T13:04:45.786Z,74.1
2023-03-06T13:06:00.012Z,73.6
2023-03-06T13:07:14.000Z,73.2
2023-03-06T13:08:28.652Z,74.6
2023-03-06T13:09:41.947Z,75.7
2023-03-06T13:10:56.174Z,75.9
2023-03-06T13:12:10.482Z,75.8
2023-03-06T13:13:24.729Z,75.7
2023-03-06T13:14:38.941Z,76.7
2023-03-06T13:15:53.174Z,75.9
2023-03-06T13:17:07.403Z,74
2023-03-06T13:18:21.706Z,74.3
2023-03-06T13:19:35.945Z,73.6
2023-03-06T13:22:04.522Z,73.6
2023-03-06T13:23:18.737Z,74.1
2023-03-06T13:24:33.037Z,73
2023-03-06T13:25:47.289Z,74.9
2023-03-06T13:27:01.507Z,73.8
2023-03-06T13:28:15.745Z,72.5
2023-03-06T13:29:29.972Z,70.2
2023-03-06T13:30:44.256Z,70
2023-03-06T13:31:58.512Z,69.6
2023-03-06T13:33:12.741Z,69
2023-03-06T13:34:26.962Z,69.4
2023-03-06T13:35:41.192Z,68.2
2023-03-06T13:36:55.487Z,67.9
2023-03-06T13:38:09.730Z,69.2
2023-03-06T13:39:23.944Z,69.2
2023-03-06T13:40:38.178Z,67.4
2023-03-06T13:41:52.405Z,68.4
2023-03-06T13:43:06.709Z,66.7
2023-03-06T13:44:20.940Z,65.9
2023-03-06T13:45:35.171Z,67.5
2023-03-06T13:46:49.405Z,67.2
2023-03-06T13:48:03.626Z,67.5
2023-03-06T13:49:17.931Z,65.8
2023-03-06T13:50:32.163Z,65.2
2023-03-06T13:51:46.405Z,66.8
2023-03-06T13:53:00.614Z,68
2023-03-06T13:54:14.843Z,67.8
2023-03-06T13:55:29.146Z,69
2023-03-06T13:56:43.387Z,69.1
2023-03-06T13:57:57.620Z,66.9
2023-03-06T13:59:11.844Z,67.7
2023-03-06T14:00:26.066Z,67.7
2023-03-06T14:01:40.367Z,66.9
2023-03-06T14:02:54.611Z,68.5
2023-03-06T14:04:08.835Z,67.1
2023-03-06T14:05:23.064Z,66.1
2023-03-06T14:06:37.344Z,66.9
2023-03-06T14:07:51.655Z,66
2023-03-06T14:09:05.935Z,65.8
2023-03-06T14:10:19.225Z,65.7
2023-03-06T14:11:33.445Z,66
2023-03-06T14:12:47.747Z,66.9
2023-03-06T14:14:01.986Z,67
2023-03-06T14:15:16.226Z,67.5
2023-03-06T14:16:30.454Z,67
2023-03-06T14:17:44.669Z,66.7
2023-03-06T14:18:58.973Z,66.6
2023-03-06T14:20:13.208Z,66.7
2023-03-06T14:21:27.442Z,66.9
2023-03-06T14:22:41.674Z,68.3
2023-03-06T14:23:55.894Z,66.3
2023-03-06T14:25:10.203Z,65.8
2023-03-06T14:26:24.429Z,66.1
2023-03-06T14:27:38.662Z,65
2023-03-06T14:28:52.880Z,66.9
2023-03-06T14:30:07.120Z,67.1
2023-03-06T14:31:21.416Z,66.8
2023-03-06T14:32:35.651Z,67.2
2023-03-06T14:33:49.879Z,65.2
2023-03-06T14:35:04.106Z,64.5
2023-03-06T14:36:18.334Z,65
2023-03-06T14:37:32.642Z,65.4
2023-03-06T14:38:46.878Z,65.1
2023-03-06T14:40:01.098Z,64.8
2023-03-06T14:41:15.393Z,64.3
2023-03-06T14:42:28.710Z,65.8
2023-03-06T14:43:42.993Z,65.8
2023-03-06T14:44:56.289Z,65.6
2023-03-06T14:46:10.528Z,66.1
2023-03-06T14:47:24.828Z,66.8
2023-03-06T14:48:39.060Z,67.5
2023-03-06T14:49:53.283Z,67.8
2023-03-06T14:51:07.522Z,68.3
2023-03-06T14:52:21.743Z,69.1
2023-03-06T14:53:36.034Z,69.6
2023-03-06T14:54:50.281Z,69.3
2023-03-06T14:56:04.508Z,69.2
2023-03-06T14:57:18.746Z,69.8
2023-03-06T14:58:32.962Z,69.6
2023-03-06T14:59:47.258Z,70.1
2023-03-06T15:01:01.501Z,70.4
2023-03-06T15:02:15.733Z,69.8
2023-03-06T15:03:29.000Z,70.1
2023-03-06T15:05:58.487Z,70.3
2023-03-06T15:07:12.727Z,69.1
2023-03-06T15:08:26.959Z,69.3
2023-03-06T15:09:41.177Z,69.7
2023-03-06T15:10:55.397Z,70.3
2023-03-06T15:12:09.707Z,69.8
2023-03-06T15:13:23.946Z,69.2
2023-03-06T15:14:38.180Z,68.6
2023-03-06T15:15:52.468Z,68.3
2023-03-06T15:17:06.748Z,68.3
2023-03-06T15:18:21.035Z,67.4
2023-03-06T15:19:35.317Z,67.9
2023-03-06T15:20:48.617Z,66.9
2023-03-06T15:22:02.838Z,68
2023-03-06T15:23:17.151Z,69.3
2023-03-06T15:24:31.393Z,69.2
2023-03-06T15:25:45.606Z,69.1
2023-03-06T15:26:59.849Z,69.8
2023-03-06T15:28:14.066Z,69.6
2023-03-06T15:29:28.373Z,69.3
2023-03-06T15:30:42.602Z,68.9
2023-03-06T15:31:56.830Z,68.9
2023-03-06T15:33:11.068Z,69.3
2023-03-06T15:34:25.288Z,69
2023-03-06T15:35:39.595Z,69.3
2023-03-06T15:36:53.835Z,68.3
2023-03-06T15:38:08.045Z,68.5
2023-03-06T15:40:36.501Z,68.5
2023-03-06T15:41:50.809Z,69.3
2023-03-06T15:43:05.044Z,68.8
2023-03-06T15:44:19.271Z,67.6
2023-03-06T15:45:33.498Z,68.7
2023-03-06T15:46:47.726Z,69
2023-03-06T15:48:02.035Z,68.1
2023-03-06T15:49:16.273Z,67.7
2023-03-06T15:50:30.501Z,67.6
2023-03-06T15:51:44.784Z,67.8
2023-03-06T15:52:58.081Z,68.1
2023-03-06T15:54:12.322Z,67.9
2023-03-06T15:55:26.553Z,67.7
2023-03-06T15:56:40.764Z,67.8
2023-03-06T15:57:54.993Z,67.4
2023-03-06T15:59:09.305Z,67.7
2023-03-06T16:00:23.539Z,67.9
2023-03-06T16:01:37.759Z,67.7
2023-03-06T16:02:51.984Z,67.1
2023-03-06T16:04:06.215Z,67
2023-03-06T16:05:20.516Z,67.3
2023-03-06T16:06:34.765Z,68.2
2023-03-06T16:07:48.982Z,67.9
2023-03-06T16:09:03.216Z,68.5
2023-03-06T16:10:17.448Z,68.7
2023-03-06T16:11:31.736Z,68.5
2023-03-06T16:12:45.982Z,68
2023-03-06T16:14:00.214Z,68.8
2023-03-06T16:15:14.439Z,69.1
2023-03-06T16:16:28.649Z,69.1
2023-03-06T16:17:42.953Z,68.9
2023-03-06T16:18:57.206Z,69.4
2023-03-06T16:20:11.423Z,69.4
2023-03-06T16:21:25.662Z,69.9
2023-03-06T16:22:39.883Z,70.5
2023-03-06T16:23:54.239Z,71
2023-03-06T16:25:08.529Z,69.7
2023-03-06T16:26:21.822Z,70.4
2023-03-06T16:27:36.050Z,70.2
2023-03-06T16:28:50.357Z,70.8
2023-03-06T16:30:04.586Z,71
2023-03-06T16:31:18.807Z,71
2023-03-06T16:32:33.046Z,71.1
2023-03-06T16:33:47.261Z,71
2023-03-06T16:35:01.571Z,71.9
2023-03-06T16:36:15.814Z,72.2
2023-03-06T16:37:30.030Z,72.4
2023-03-06T16:38:44.269Z,72.3
2023-03-06T16:39:58.486Z,72.5
2023-03-06T16:41:12.787Z,72.6
2023-03-06T16:43:41.249Z,72.9
2023-03-06T16:44:55.483Z,72.7
2023-03-06T16:46:09.716Z,72.8
2023-03-06T16:47:24.012Z,72.9
2023-03-06T16:48:38.249Z,73
2023-03-06T16:49:52.486Z,73.5
2023-03-06T16:51:06.706Z,73.5
2023-03-06T16:52:20.933Z,73.3
2023-03-06T16:53:35.238Z,73.4
2023-03-06T16:54:49.481Z,73.2
2023-03-06T16:56:03.692Z,73.5
2023-03-06T16:57:17.990Z,73.8
2023-03-06T16:58:31.318Z,74.1
2023-03-06T16:59:45.607Z,74.8
2023-03-06T17:00:58.893Z,74.5
2023-03-06T17:02:13.126Z,74.6
2023-03-06T17:03:27.423Z,74.3
2023-03-06T17:04:41.660Z,74.7
2023-03-06T17:05:55.889Z,74.8
2023-03-06T17:08:24.332Z,75.2
2023-03-06T17:09:38.634Z,74.9
2023-03-06T17:10:52.887Z,74.7
2023-03-06T17:12:07.100Z,74.8